sensor_id;sensor_type;location;lat;lon;timestamp;P1;durP1;ratioP1;P2;durP2;ratioP2
2686;SDS011;1353;51.386;7.028;2022-10-16T00:01:47;3.07;;;2.77;;
2686;SDS011;1353;51.386;7.028;2022-10-16T00:04:14;3.77;;;3.20;;
2686;SDS011;1353;51.386;7.028;2022-10-16T00:06:41;3.60;;;3.30;;
2686;SDS011;1353;51.386;7.028;2022-10-16T00:09:09;4.20;;;3.00;;
2686;SDS011;1353;51.386;7.028;2022-10-16T00:11:36;2.87;;;2.57;;
2686;SDS011;1353;51.386;7.028;2022-10-16T00:14:05;3.40;;;2.67;;
2686;SDS011;1353;51.386;7.028;2022-10-16T00:16:34;4.73;;;2.93;;
2686;SDS011;1353;51.386;7.028;2022-10-16T00:19:01;3.47;;;3.23;;
2686;SDS011;1353;51.386;7.028;2022-10-16T00:21:29;6.43;;;2.60;;
2686;SDS011;1353;51.386;7.028;2022-10-16T00:23:57;3.53;;;3.23;;
2686;SDS011;1353;51.386;7.028;2022-10-16T00:26:27;3.83;;;3.20;;
2686;SDS011;1353;51.386;7.028;2022-10-16T00:28:55;3.50;;;2.40;;
2686;SDS011;1353;51.386;7.028;2022-10-16T00:31:22;4.60;;;2.63;;
2686;SDS011;1353;51.386;7.028;2022-10-16T00:33:49;5.03;;;2.77;;
2686;SDS011;1353;51.386;7.028;2022-10-16T00:36:17;2.90;;;2.57;;
2686;SDS011;1353;51.386;7.028;2022-10-16T00:38:44;4.07;;;2.90;;
2686;SDS011;1353;51.386;7.028;2022-10-16T00:41:13;2.60;;;2.40;;
2686;SDS011;1353;51.386;7.028;2022-10-16T00:43:45;4.03;;;2.40;;
2686;SDS011;1353;51.386;7.028;2022-10-16T00:46:14;3.03;;;2.67;;
2686;SDS011;1353;51.386;7.028;2022-10-16T00:48:45;3.57;;;2.17;;
2686;SDS011;1353;51.386;7.028;2022-10-16T00:51:16;3.00;;;2.70;;
2686;SDS011;1353;51.386;7.028;2022-10-16T00:53:46;2.63;;;2.43;;
2686;SDS011;1353;51.386;7.028;2022-10-16T00:56:12;2.87;;;2.67;;
2686;SDS011;1353;51.386;7.028;2022-10-16T00:58:39;3.43;;;2.50;;
2686;SDS011;1353;51.386;7.028;2022-10-16T01:01:07;2.87;;;2.67;;
2686;SDS011;1353;51.386;7.028;2022-10-16T01:03:35;3.10;;;2.20;;
2686;SDS011;1353;51.386;7.028;2022-10-16T01:06:05;2.40;;;2.20;;
2686;SDS011;1353;51.386;7.028;2022-10-16T01:08:46;2.23;;;2.13;;
2686;SDS011;1353;51.386;7.028;2022-10-16T01:11:22;2.60;;;2.40;;
2686;SDS011;1353;51.386;7.028;2022-10-16T01:13:53;6.23;;;2.63;;
2686;SDS011;1353;51.386;7.028;2022-10-16T01:16:28;3.57;;;2.40;;
2686;SDS011;1353;51.386;7.028;2022-10-16T01:19:01;2.60;;;2.40;;
2686;SDS011;1353;51.386;7.028;2022-10-16T01:21:36;3.13;;;2.83;;
2686;SDS011;1353;51.386;7.028;2022-10-16T01:24:06;2.90;;;2.60;;
2686;SDS011;1353;51.386;7.028;2022-10-16T01:26:42;4.30;;;2.20;;
2686;SDS011;1353;51.386;7.028;2022-10-16T01:29:28;2.57;;;2.20;;
2686;SDS011;1353;51.386;7.028;2022-10-16T01:32:00;2.60;;;2.40;;
2686;SDS011;1353;51.386;7.028;2022-10-16T01:34:32;4.60;;;2.70;;
2686;SDS011;1353;51.386;7.028;2022-10-16T01:37:04;2.83;;;2.43;;
2686;SDS011;1353;51.386;7.028;2022-10-16T01:39:34;3.27;;;2.97;;
2686;SDS011;1353;51.386;7.028;2022-10-16T01:42:06;3.60;;;3.10;;
2686;SDS011;1353;51.386;7.028;2022-10-16T01:44:37;3.10;;;2.90;;
2686;SDS011;1353;51.386;7.028;2022-10-16T01:47:06;2.47;;;2.27;;
2686;SDS011;1353;51.386;7.028;2022-10-16T01:49:36;2.77;;;2.60;;
2686;SDS011;1353;51.386;7.028;2022-10-16T01:52:05;2.33;;;2.23;;
2686;SDS011;1353;51.386;7.028;2022-10-16T01:54:35;2.37;;;2.27;;
2686;SDS011;1353;51.386;7.028;2022-10-16T01:57:06;3.30;;;3.00;;
2686;SDS011;1353;51.386;7.028;2022-10-16T01:59:35;5.93;;;4.33;;
2686;SDS011;1353;51.386;7.028;2022-10-16T02:02:05;3.80;;;2.70;;
2686;SDS011;1353;51.386;7.028;2022-10-16T02:04:36;3.13;;;2.87;;
2686;SDS011;1353;51.386;7.028;2022-10-16T02:07:08;3.37;;;2.90;;
2686;SDS011;1353;51.386;7.028;2022-10-16T02:09:36;3.57;;;3.30;;
2686;SDS011;1353;51.386;7.028;2022-10-16T02:12:05;4.53;;;2.83;;
2686;SDS011;1353;51.386;7.028;2022-10-16T02:14:37;7.03;;;2.87;;
2686;SDS011;1353;51.386;7.028;2022-10-16T02:17:10;3.43;;;2.83;;
2686;SDS011;1353;51.386;7.028;2022-10-16T02:19:38;2.27;;;2.17;;
2686;SDS011;1353;51.386;7.028;2022-10-16T02:22:05;2.60;;;2.50;;
2686;SDS011;1353;51.386;7.028;2022-10-16T02:24:37;3.60;;;2.97;;
2686;SDS011;1353;51.386;7.028;2022-10-16T02:27:11;2.83;;;2.53;;
2686;SDS011;1353;51.386;7.028;2022-10-16T02:29:45;2.50;;;2.30;;
2686;SDS011;1353;51.386;7.028;2022-10-16T02:32:15;2.53;;;2.40;;
2686;SDS011;1353;51.386;7.028;2022-10-16T02:34:45;3.00;;;2.70;;
2686;SDS011;1353;51.386;7.028;2022-10-16T02:37:14;2.50;;;2.30;;
2686;SDS011;1353;51.386;7.028;2022-10-16T02:39:42;2.70;;;2.50;;
2686;SDS011;1353;51.386;7.028;2022-10-16T02:42:11;2.23;;;2.03;;
2686;SDS011;1353;51.386;7.028;2022-10-16T02:44:38;2.37;;;2.17;;
2686;SDS011;1353;51.386;7.028;2022-10-16T02:47:05;3.93;;;2.30;;
2686;SDS011;1353;51.386;7.028;2022-10-16T02:49:32;2.70;;;2.50;;
2686;SDS011;1353;51.386;7.028;2022-10-16T02:51:58;2.90;;;2.70;;
2686;SDS011;1353;51.386;7.028;2022-10-16T02:54:25;2.20;;;2.10;;
2686;SDS011;1353;51.386;7.028;2022-10-16T02:56:52;2.63;;;2.10;;
2686;SDS011;1353;51.386;7.028;2022-10-16T02:59:20;3.53;;;2.27;;
2686;SDS011;1353;51.386;7.028;2022-10-16T03:01:47;2.70;;;2.50;;
2686;SDS011;1353;51.386;7.028;2022-10-16T03:04:13;2.90;;;2.60;;
2686;SDS011;1353;51.386;7.028;2022-10-16T03:06:40;3.20;;;2.63;;
2686;SDS011;1353;51.386;7.028;2022-10-16T03:09:07;3.07;;;2.70;;
2686;SDS011;1353;51.386;7.028;2022-10-16T03:11:33;3.57;;;2.60;;
2686;SDS011;1353;51.386;7.028;2022-10-16T03:14:00;6.20;;;2.50;;
2686;SDS011;1353;51.386;7.028;2022-10-16T03:16:28;3.07;;;2.80;;
2686;SDS011;1353;51.386;7.028;2022-10-16T03:18:55;2.70;;;2.50;;
2686;SDS011;1353;51.386;7.028;2022-10-16T03:21:22;2.40;;;2.20;;
2686;SDS011;1353;51.386;7.028;2022-10-16T03:23:49;2.20;;;2.10;;
2686;SDS011;1353;51.386;7.028;2022-10-16T03:26:15;2.47;;;2.27;;
2686;SDS011;1353;51.386;7.028;2022-10-16T03:28:42;2.47;;;2.00;;
2686;SDS011;1353;51.386;7.028;2022-10-16T03:31:09;2.73;;;2.03;;
2686;SDS011;1353;51.386;7.028;2022-10-16T03:33:37;7.60;;;2.67;;
2686;SDS011;1353;51.386;7.028;2022-10-16T03:36:03;5.00;;;2.80;;
2686;SDS011;1353;51.386;7.028;2022-10-16T03:38:30;3.07;;;2.73;;
2686;SDS011;1353;51.386;7.028;2022-10-16T03:40:57;3.00;;;2.67;;
2686;SDS011;1353;51.386;7.028;2022-10-16T03:43:24;3.33;;;2.40;;
2686;SDS011;1353;51.386;7.028;2022-10-16T03:45:51;2.87;;;2.67;;
2686;SDS011;1353;51.386;7.028;2022-10-16T03:48:17;2.50;;;2.30;;
2686;SDS011;1353;51.386;7.028;2022-10-16T03:50:45;2.13;;;1.87;;
2686;SDS011;1353;51.386;7.028;2022-10-16T03:53:13;1.63;;;1.53;;
2686;SDS011;1353;51.386;7.028;2022-10-16T03:55:40;2.43;;;2.23;;
2686;SDS011;1353;51.386;7.028;2022-10-16T03:58:07;3.53;;;1.80;;
2686;SDS011;1353;51.386;7.028;2022-10-16T04:00:34;2.80;;;1.90;;
2686;SDS011;1353;51.386;7.028;2022-10-16T04:03:01;2.57;;;2.00;;
2686;SDS011;1353;51.386;7.028;2022-10-16T04:05:28;2.13;;;1.93;;
2686;SDS011;1353;51.386;7.028;2022-10-16T04:07:56;3.50;;;2.00;;
2686;SDS011;1353;51.386;7.028;2022-10-16T04:10:22;2.30;;;2.10;;
2686;SDS011;1353;51.386;7.028;2022-10-16T04:12:49;3.80;;;2.50;;
2686;SDS011;1353;51.386;7.028;2022-10-16T04:15:16;4.23;;;2.70;;
2686;SDS011;1353;51.386;7.028;2022-10-16T04:17:43;2.33;;;2.10;;
2686;SDS011;1353;51.386;7.028;2022-10-16T04:20:09;5.17;;;3.03;;
2686;SDS011;1353;51.386;7.028;2022-10-16T04:22:36;2.20;;;2.10;;
2686;SDS011;1353;51.386;7.028;2022-10-16T04:25:04;3.53;;;1.97;;
2686;SDS011;1353;51.386;7.028;2022-10-16T04:27:32;2.77;;;2.47;;
2686;SDS011;1353;51.386;7.028;2022-10-16T04:29:58;2.00;;;1.90;;
2686;SDS011;1353;51.386;7.028;2022-10-16T04:32:26;2.83;;;2.37;;
2686;SDS011;1353;51.386;7.028;2022-10-16T04:34:53;3.37;;;2.27;;
2686;SDS011;1353;51.386;7.028;2022-10-16T04:37:22;2.63;;;2.53;;
2686;SDS011;1353;51.386;7.028;2022-10-16T04:39:49;3.90;;;2.20;;
2686;SDS011;1353;51.386;7.028;2022-10-16T04:42:17;2.27;;;2.17;;
2686;SDS011;1353;51.386;7.028;2022-10-16T04:44:44;5.23;;;2.00;;
2686;SDS011;1353;51.386;7.028;2022-10-16T04:47:11;3.50;;;1.97;;
2686;SDS011;1353;51.386;7.028;2022-10-16T04:49:38;3.43;;;2.30;;
2686;SDS011;1353;51.386;7.028;2022-10-16T04:52:05;1.80;;;1.70;;
2686;SDS011;1353;51.386;7.028;2022-10-16T04:54:33;1.90;;;1.80;;
2686;SDS011;1353;51.386;7.028;2022-10-16T04:57:00;1.83;;;1.73;;
2686;SDS011;1353;51.386;7.028;2022-10-16T04:59:28;2.00;;;1.90;;
2686;SDS011;1353;51.386;7.028;2022-10-16T05:01:55;3.00;;;2.80;;
2686;SDS011;1353;51.386;7.028;2022-10-16T05:04:21;2.57;;;2.47;;
2686;SDS011;1353;51.386;7.028;2022-10-16T05:06:48;3.30;;;2.47;;
2686;SDS011;1353;51.386;7.028;2022-10-16T05:09:15;2.20;;;2.07;;
2686;SDS011;1353;51.386;7.028;2022-10-16T05:11:42;2.13;;;1.90;;
2686;SDS011;1353;51.386;7.028;2022-10-16T05:14:09;2.40;;;2.30;;
2686;SDS011;1353;51.386;7.028;2022-10-16T05:16:37;2.90;;;2.20;;
2686;SDS011;1353;51.386;7.028;2022-10-16T05:19:04;2.27;;;2.17;;
2686;SDS011;1353;51.386;7.028;2022-10-16T05:21:31;3.83;;;2.00;;
2686;SDS011;1353;51.386;7.028;2022-10-16T05:23:57;2.73;;;2.30;;
2686;SDS011;1353;51.386;7.028;2022-10-16T05:26:24;2.17;;;1.93;;
2686;SDS011;1353;51.386;7.028;2022-10-16T05:28:51;2.70;;;2.10;;
2686;SDS011;1353;51.386;7.028;2022-10-16T05:31:17;2.27;;;2.17;;
2686;SDS011;1353;51.386;7.028;2022-10-16T05:33:46;2.20;;;2.10;;
2686;SDS011;1353;51.386;7.028;2022-10-16T05:36:13;2.40;;;2.30;;
2686;SDS011;1353;51.386;7.028;2022-10-16T05:38:40;3.57;;;2.63;;
2686;SDS011;1353;51.386;7.028;2022-10-16T05:41:07;2.53;;;2.40;;
2686;SDS011;1353;51.386;7.028;2022-10-16T05:43:34;3.77;;;3.17;;
2686;SDS011;1353;51.386;7.028;2022-10-16T05:46:01;2.83;;;2.67;;
2686;SDS011;1353;51.386;7.028;2022-10-16T05:48:29;2.47;;;2.37;;
2686;SDS011;1353;51.386;7.028;2022-10-16T05:50:59;3.00;;;2.47;;
2686;SDS011;1353;51.386;7.028;2022-10-16T05:53:27;3.30;;;2.27;;
2686;SDS011;1353;51.386;7.028;2022-10-16T05:55:54;4.70;;;2.77;;
2686;SDS011;1353;51.386;7.028;2022-10-16T05:58:22;2.90;;;2.70;;
2686;SDS011;1353;51.386;7.028;2022-10-16T06:00:55;2.60;;;2.40;;
2686;SDS011;1353;51.386;7.028;2022-10-16T06:03:23;5.73;;;2.40;;
2686;SDS011;1353;51.386;7.028;2022-10-16T06:05:50;3.00;;;2.80;;
2686;SDS011;1353;51.386;7.028;2022-10-16T06:08:18;2.80;;;2.60;;
2686;SDS011;1353;51.386;7.028;2022-10-16T06:10:46;3.30;;;3.10;;
2686;SDS011;1353;51.386;7.028;2022-10-16T06:13:13;4.73;;;3.33;;
2686;SDS011;1353;51.386;7.028;2022-10-16T06:15:41;3.07;;;2.87;;
2686;SDS011;1353;51.386;7.028;2022-10-16T06:18:08;3.13;;;2.97;;
2686;SDS011;1353;51.386;7.028;2022-10-16T06:20:35;4.80;;;3.00;;
2686;SDS011;1353;51.386;7.028;2022-10-16T06:23:03;3.83;;;3.53;;
2686;SDS011;1353;51.386;7.028;2022-10-16T06:25:31;3.70;;;3.40;;
2686;SDS011;1353;51.386;7.028;2022-10-16T06:27:58;4.43;;;4.03;;
2686;SDS011;1353;51.386;7.028;2022-10-16T06:30:25;3.70;;;3.00;;
2686;SDS011;1353;51.386;7.028;2022-10-16T06:32:51;3.57;;;3.27;;
2686;SDS011;1353;51.386;7.028;2022-10-16T06:35:18;3.53;;;3.30;;
2686;SDS011;1353;51.386;7.028;2022-10-16T06:37:45;3.27;;;2.97;;
2686;SDS011;1353;51.386;7.028;2022-10-16T06:40:11;3.80;;;3.40;;
2686;SDS011;1353;51.386;7.028;2022-10-16T06:42:41;3.20;;;3.00;;
2686;SDS011;1353;51.386;7.028;2022-10-16T06:45:08;3.43;;;3.13;;
2686;SDS011;1353;51.386;7.028;2022-10-16T06:47:35;3.47;;;3.27;;
2686;SDS011;1353;51.386;7.028;2022-10-16T06:50:02;3.83;;;3.03;;
2686;SDS011;1353;51.386;7.028;2022-10-16T06:52:31;3.67;;;2.80;;
2686;SDS011;1353;51.386;7.028;2022-10-16T06:54:58;6.97;;;2.70;;
2686;SDS011;1353;51.386;7.028;2022-10-16T06:57:25;2.40;;;2.30;;
2686;SDS011;1353;51.386;7.028;2022-10-16T06:59:53;2.37;;;2.23;;
2686;SDS011;1353;51.386;7.028;2022-10-16T07:02:20;2.60;;;2.40;;
2686;SDS011;1353;51.386;7.028;2022-10-16T07:04:46;2.90;;;2.70;;
2686;SDS011;1353;51.386;7.028;2022-10-16T07:07:13;2.60;;;2.40;;
2686;SDS011;1353;51.386;7.028;2022-10-16T07:09:40;2.60;;;2.30;;
2686;SDS011;1353;51.386;7.028;2022-10-16T07:12:07;4.03;;;2.20;;
2686;SDS011;1353;51.386;7.028;2022-10-16T07:14:33;3.87;;;2.07;;
2686;SDS011;1353;51.386;7.028;2022-10-16T07:17:01;2.33;;;2.17;;
2686;SDS011;1353;51.386;7.028;2022-10-16T07:19:28;1.90;;;1.80;;
2686;SDS011;1353;51.386;7.028;2022-10-16T07:21:55;3.50;;;2.07;;
2686;SDS011;1353;51.386;7.028;2022-10-16T07:24:22;3.83;;;1.90;;
2686;SDS011;1353;51.386;7.028;2022-10-16T07:26:49;4.37;;;2.30;;
2686;SDS011;1353;51.386;7.028;2022-10-16T07:29:17;2.27;;;2.03;;
2686;SDS011;1353;51.386;7.028;2022-10-16T07:31:45;2.57;;;2.17;;
2686;SDS011;1353;51.386;7.028;2022-10-16T07:34:15;2.67;;;2.13;;
2686;SDS011;1353;51.386;7.028;2022-10-16T07:36:43;2.10;;;2.00;;
2686;SDS011;1353;51.386;7.028;2022-10-16T07:39:11;3.23;;;2.93;;
2686;SDS011;1353;51.386;7.028;2022-10-16T07:41:37;3.90;;;2.40;;
2686;SDS011;1353;51.386;7.028;2022-10-16T07:44:04;2.10;;;2.00;;
2686;SDS011;1353;51.386;7.028;2022-10-16T07:46:31;3.60;;;2.10;;
2686;SDS011;1353;51.386;7.028;2022-10-16T07:49:00;1.20;;;1.10;;
2686;SDS011;1353;51.386;7.028;2022-10-16T07:51:29;3.00;;;1.47;;
2686;SDS011;1353;51.386;7.028;2022-10-16T07:53:55;2.17;;;1.23;;
2686;SDS011;1353;51.386;7.028;2022-10-16T07:56:22;2.07;;;1.20;;
2686;SDS011;1353;51.386;7.028;2022-10-16T07:58:49;1.50;;;1.40;;
2686;SDS011;1353;51.386;7.028;2022-10-16T08:01:17;4.33;;;1.23;;
2686;SDS011;1353;51.386;7.028;2022-10-16T08:03:45;2.03;;;1.00;;
2686;SDS011;1353;51.386;7.028;2022-10-16T08:06:13;1.10;;;1.00;;
2686;SDS011;1353;51.386;7.028;2022-10-16T08:08:41;2.73;;;1.77;;
2686;SDS011;1353;51.386;7.028;2022-10-16T08:11:09;2.70;;;1.20;;
2686;SDS011;1353;51.386;7.028;2022-10-16T08:13:36;1.37;;;1.00;;
2686;SDS011;1353;51.386;7.028;2022-10-16T08:16:03;2.47;;;1.23;;
2686;SDS011;1353;51.386;7.028;2022-10-16T08:18:33;1.33;;;1.20;;
2686;SDS011;1353;51.386;7.028;2022-10-16T08:21:00;1.23;;;0.93;;
2686;SDS011;1353;51.386;7.028;2022-10-16T08:23:26;2.60;;;1.17;;
2686;SDS011;1353;51.386;7.028;2022-10-16T08:25:55;1.20;;;1.00;;
2686;SDS011;1353;51.386;7.028;2022-10-16T08:28:27;2.07;;;1.50;;
2686;SDS011;1353;51.386;7.028;2022-10-16T08:30:54;2.53;;;1.20;;
2686;SDS011;1353;51.386;7.028;2022-10-16T08:33:21;1.50;;;1.00;;
2686;SDS011;1353;51.386;7.028;2022-10-16T08:35:51;1.20;;;0.90;;
2686;SDS011;1353;51.386;7.028;2022-10-16T08:38:19;3.47;;;1.00;;
2686;SDS011;1353;51.386;7.028;2022-10-16T08:40:46;4.20;;;0.80;;
2686;SDS011;1353;51.386;7.028;2022-10-16T08:46:21;2.40;;;1.10;;
2686;SDS011;1353;51.386;7.028;2022-10-16T08:48:54;1.77;;;1.03;;
2686;SDS011;1353;51.386;7.028;2022-10-16T08:51:25;1.73;;;0.80;;
2686;SDS011;1353;51.386;7.028;2022-10-16T08:53:56;1.03;;;0.93;;
2686;SDS011;1353;51.386;7.028;2022-10-16T08:56:24;1.10;;;0.80;;
2686;SDS011;1353;51.386;7.028;2022-10-16T08:58:53;3.20;;;1.10;;
2686;SDS011;1353;51.386;7.028;2022-10-16T09:01:22;2.03;;;1.00;;
2686;SDS011;1353;51.386;7.028;2022-10-16T09:03:56;1.17;;;0.80;;
2686;SDS011;1353;51.386;7.028;2022-10-16T09:06:41;2.93;;;0.70;;
2686;SDS011;1353;51.386;7.028;2022-10-16T09:09:18;2.03;;;0.80;;
2686;SDS011;1353;51.386;7.028;2022-10-16T09:12:08;1.57;;;0.90;;
2686;SDS011;1353;51.386;7.028;2022-10-16T09:14:49;5.80;;;1.03;;
2686;SDS011;1353;51.386;7.028;2022-10-16T09:17:27;4.87;;;1.17;;
2686;SDS011;1353;51.386;7.028;2022-10-16T09:20:07;1.20;;;0.80;;
2686;SDS011;1353;51.386;7.028;2022-10-16T09:22:45;1.53;;;1.00;;
2686;SDS011;1353;51.386;7.028;2022-10-16T09:25:13;1.37;;;0.73;;
2686;SDS011;1353;51.386;7.028;2022-10-16T09:27:42;2.70;;;1.03;;
2686;SDS011;1353;51.386;7.028;2022-10-16T09:30:14;1.40;;;0.80;;
2686;SDS011;1353;51.386;7.028;2022-10-16T09:32:43;6.27;;;0.90;;
2686;SDS011;1353;51.386;7.028;2022-10-16T09:35:13;2.00;;;0.90;;
2686;SDS011;1353;51.386;7.028;2022-10-16T09:37:42;3.33;;;0.87;;
2686;SDS011;1353;51.386;7.028;2022-10-16T09:40:12;1.83;;;0.87;;
2686;SDS011;1353;51.386;7.028;2022-10-16T09:42:49;1.37;;;1.00;;
2686;SDS011;1353;51.386;7.028;2022-10-16T09:45:21;1.63;;;0.80;;
2686;SDS011;1353;51.386;7.028;2022-10-16T09:47:49;1.50;;;0.70;;
2686;SDS011;1353;51.386;7.028;2022-10-16T09:50:22;1.67;;;0.80;;
2686;SDS011;1353;51.386;7.028;2022-10-16T09:52:51;2.93;;;0.73;;
2686;SDS011;1353;51.386;7.028;2022-10-16T09:55:29;0.93;;;0.70;;
2686;SDS011;1353;51.386;7.028;2022-10-16T09:57:56;1.80;;;0.70;;
2686;SDS011;1353;51.386;7.028;2022-10-16T10:00:24;2.90;;;0.70;;
2686;SDS011;1353;51.386;7.028;2022-10-16T10:02:51;3.63;;;0.90;;
2686;SDS011;1353;51.386;7.028;2022-10-16T10:05:20;2.40;;;0.70;;
2686;SDS011;1353;51.386;7.028;2022-10-16T10:07:53;2.57;;;0.77;;
2686;SDS011;1353;51.386;7.028;2022-10-16T10:10:22;1.23;;;0.70;;
2686;SDS011;1353;51.386;7.028;2022-10-16T10:12:50;4.50;;;0.80;;
2686;SDS011;1353;51.386;7.028;2022-10-16T10:15:17;2.67;;;0.70;;
2686;SDS011;1353;51.386;7.028;2022-10-16T10:17:48;1.53;;;0.97;;
2686;SDS011;1353;51.386;7.028;2022-10-16T10:20:24;1.03;;;0.93;;
2686;SDS011;1353;51.386;7.028;2022-10-16T10:22:54;2.10;;;0.93;;
2686;SDS011;1353;51.386;7.028;2022-10-16T10:25:34;2.83;;;0.80;;
2686;SDS011;1353;51.386;7.028;2022-10-16T10:28:19;2.43;;;1.00;;
2686;SDS011;1353;51.386;7.028;2022-10-16T10:31:01;2.30;;;0.80;;
2686;SDS011;1353;51.386;7.028;2022-10-16T10:33:43;2.60;;;0.80;;
2686;SDS011;1353;51.386;7.028;2022-10-16T10:36:18;1.20;;;0.73;;
2686;SDS011;1353;51.386;7.028;2022-10-16T10:38:54;1.57;;;0.67;;
2686;SDS011;1353;51.386;7.028;2022-10-16T10:41:47;1.40;;;0.67;;
2686;SDS011;1353;51.386;7.028;2022-10-16T10:44:37;1.83;;;0.70;;
2686;SDS011;1353;51.386;7.028;2022-10-16T10:47:19;2.70;;;1.00;;
2686;SDS011;1353;51.386;7.028;2022-10-16T10:49:56;2.70;;;1.00;;
2686;SDS011;1353;51.386;7.028;2022-10-16T10:52:38;2.20;;;0.77;;
2686;SDS011;1353;51.386;7.028;2022-10-16T10:55:16;0.80;;;0.60;;
2686;SDS011;1353;51.386;7.028;2022-10-16T10:58:10;6.80;;;2.10;;
2686;SDS011;1353;51.386;7.028;2022-10-16T11:00:50;1.73;;;0.80;;
2686;SDS011;1353;51.386;7.028;2022-10-16T11:03:32;0.90;;;0.70;;
2686;SDS011;1353;51.386;7.028;2022-10-16T11:06:11;1.17;;;0.63;;
2686;SDS011;1353;51.386;7.028;2022-10-16T11:08:42;1.00;;;0.60;;
2686;SDS011;1353;51.386;7.028;2022-10-16T11:11:14;1.17;;;0.90;;
2686;SDS011;1353;51.386;7.028;2022-10-16T11:13:45;1.73;;;0.90;;
2686;SDS011;1353;51.386;7.028;2022-10-16T11:16:21;0.80;;;0.60;;
2686;SDS011;1353;51.386;7.028;2022-10-16T11:18:57;1.67;;;1.10;;
2686;SDS011;1353;51.386;7.028;2022-10-16T11:21:31;1.00;;;0.80;;
2686;SDS011;1353;51.386;7.028;2022-10-16T11:24:06;2.17;;;0.77;;
2686;SDS011;1353;51.386;7.028;2022-10-16T11:26:42;0.80;;;0.60;;
2686;SDS011;1353;51.386;7.028;2022-10-16T11:29:14;1.50;;;0.67;;
2686;SDS011;1353;51.386;7.028;2022-10-16T11:31:48;2.10;;;1.13;;
2686;SDS011;1353;51.386;7.028;2022-10-16T11:34:21;1.93;;;0.70;;
2686;SDS011;1353;51.386;7.028;2022-10-16T11:36:53;2.10;;;0.70;;
2686;SDS011;1353;51.386;7.028;2022-10-16T11:39:24;0.80;;;0.70;;
2686;SDS011;1353;51.386;7.028;2022-10-16T11:41:54;0.87;;;0.67;;
2686;SDS011;1353;51.386;7.028;2022-10-16T11:47:27;3.70;;;1.17;;
2686;SDS011;1353;51.386;7.028;2022-10-16T11:50:01;3.00;;;1.43;;
2686;SDS011;1353;51.386;7.028;2022-10-16T11:52:33;3.33;;;0.80;;
2686;SDS011;1353;51.386;7.028;2022-10-16T11:55:05;1.20;;;0.90;;
2686;SDS011;1353;51.386;7.028;2022-10-16T11:57:42;2.57;;;0.80;;
2686;SDS011;1353;51.386;7.028;2022-10-16T12:00:15;5.33;;;1.10;;
2686;SDS011;1353;51.386;7.028;2022-10-16T12:02:50;1.83;;;0.90;;
2686;SDS011;1353;51.386;7.028;2022-10-16T12:05:25;1.87;;;0.90;;
2686;SDS011;1353;51.386;7.028;2022-10-16T12:08:04;2.87;;;0.93;;
2686;SDS011;1353;51.386;7.028;2022-10-16T12:10:36;1.77;;;0.70;;
2686;SDS011;1353;51.386;7.028;2022-10-16T12:13:04;1.23;;;1.00;;
2686;SDS011;1353;51.386;7.028;2022-10-16T12:15:32;2.37;;;0.70;;
2686;SDS011;1353;51.386;7.028;2022-10-16T12:18:00;2.20;;;0.80;;
2686;SDS011;1353;51.386;7.028;2022-10-16T12:20:28;1.97;;;0.70;;
2686;SDS011;1353;51.386;7.028;2022-10-16T12:22:58;2.00;;;0.70;;
2686;SDS011;1353;51.386;7.028;2022-10-16T12:25:28;2.30;;;0.70;;
2686;SDS011;1353;51.386;7.028;2022-10-16T12:27:58;1.50;;;0.80;;
2686;SDS011;1353;51.386;7.028;2022-10-16T12:30:27;2.33;;;0.60;;
2686;SDS011;1353;51.386;7.028;2022-10-16T12:32:56;3.30;;;1.07;;
2686;SDS011;1353;51.386;7.028;2022-10-16T12:35:27;3.13;;;1.10;;
2686;SDS011;1353;51.386;7.028;2022-10-16T12:38:04;1.53;;;0.90;;
2686;SDS011;1353;51.386;7.028;2022-10-16T12:40:35;1.40;;;0.60;;
2686;SDS011;1353;51.386;7.028;2022-10-16T12:43:25;2.13;;;0.90;;
2686;SDS011;1353;51.386;7.028;2022-10-16T12:46:01;2.40;;;1.23;;
2686;SDS011;1353;51.386;7.028;2022-10-16T12:48:29;1.30;;;0.60;;
2686;SDS011;1353;51.386;7.028;2022-10-16T12:50:56;2.07;;;0.90;;
2686;SDS011;1353;51.386;7.028;2022-10-16T12:53:24;0.77;;;0.60;;
2686;SDS011;1353;51.386;7.028;2022-10-16T12:56:00;2.30;;;0.70;;
2686;SDS011;1353;51.386;7.028;2022-10-16T12:58:50;1.47;;;0.70;;
2686;SDS011;1353;51.386;7.028;2022-10-16T13:01:33;3.17;;;0.90;;
2686;SDS011;1353;51.386;7.028;2022-10-16T13:04:23;2.97;;;1.00;;
2686;SDS011;1353;51.386;7.028;2022-10-16T13:07:04;1.00;;;0.70;;
2686;SDS011;1353;51.386;7.028;2022-10-16T13:09:49;2.13;;;0.80;;
2686;SDS011;1353;51.386;7.028;2022-10-16T13:12:34;1.07;;;0.80;;
2686;SDS011;1353;51.386;7.028;2022-10-16T13:15:19;2.57;;;0.70;;
2686;SDS011;1353;51.386;7.028;2022-10-16T13:17:55;1.53;;;0.70;;
2686;SDS011;1353;51.386;7.028;2022-10-16T13:20:28;1.50;;;0.60;;
2686;SDS011;1353;51.386;7.028;2022-10-16T13:23:03;1.17;;;0.60;;
2686;SDS011;1353;51.386;7.028;2022-10-16T13:25:41;1.33;;;0.90;;
2686;SDS011;1353;51.386;7.028;2022-10-16T13:28:17;1.20;;;0.70;;
2686;SDS011;1353;51.386;7.028;2022-10-16T13:30:50;1.43;;;0.67;;
2686;SDS011;1353;51.386;7.028;2022-10-16T13:33:19;1.93;;;0.80;;
2686;SDS011;1353;51.386;7.028;2022-10-16T13:35:51;1.90;;;0.93;;
2686;SDS011;1353;51.386;7.028;2022-10-16T13:38:19;0.73;;;0.70;;
2686;SDS011;1353;51.386;7.028;2022-10-16T13:40:48;1.43;;;0.80;;
2686;SDS011;1353;51.386;7.028;2022-10-16T13:43:15;2.03;;;0.60;;
2686;SDS011;1353;51.386;7.028;2022-10-16T13:45:52;3.03;;;0.80;;
2686;SDS011;1353;51.386;7.028;2022-10-16T13:48:20;1.20;;;0.70;;
2686;SDS011;1353;51.386;7.028;2022-10-16T13:50:47;1.50;;;0.80;;
2686;SDS011;1353;51.386;7.028;2022-10-16T13:53:29;1.80;;;0.70;;
2686;SDS011;1353;51.386;7.028;2022-10-16T13:55:57;1.83;;;0.70;;
2686;SDS011;1353;51.386;7.028;2022-10-16T13:58:26;1.90;;;0.87;;
2686;SDS011;1353;51.386;7.028;2022-10-16T14:00:54;1.20;;;0.60;;
2686;SDS011;1353;51.386;7.028;2022-10-16T14:03:23;1.90;;;0.60;;
2686;SDS011;1353;51.386;7.028;2022-10-16T14:05:51;1.27;;;0.73;;
2686;SDS011;1353;51.386;7.028;2022-10-16T14:08:19;3.13;;;0.80;;
2686;SDS011;1353;51.386;7.028;2022-10-16T14:10:47;1.97;;;0.90;;
2686;SDS011;1353;51.386;7.028;2022-10-16T14:13:16;1.40;;;1.27;;
2686;SDS011;1353;51.386;7.028;2022-10-16T14:15:47;1.77;;;0.77;;
2686;SDS011;1353;51.386;7.028;2022-10-16T14:18:18;1.83;;;1.30;;
2686;SDS011;1353;51.386;7.028;2022-10-16T14:20:47;1.83;;;0.87;;
2686;SDS011;1353;51.386;7.028;2022-10-16T14:23:22;1.20;;;0.70;;
2686;SDS011;1353;51.386;7.028;2022-10-16T14:25:54;1.23;;;0.90;;
2686;SDS011;1353;51.386;7.028;2022-10-16T14:28:31;1.70;;;0.87;;
2686;SDS011;1353;51.386;7.028;2022-10-16T14:30:59;2.57;;;0.80;;
2686;SDS011;1353;51.386;7.028;2022-10-16T14:33:31;0.90;;;0.60;;
2686;SDS011;1353;51.386;7.028;2022-10-16T14:36:03;1.53;;;0.70;;
2686;SDS011;1353;51.386;7.028;2022-10-16T14:38:36;1.10;;;1.00;;
2686;SDS011;1353;51.386;7.028;2022-10-16T14:41:05;5.73;;;0.97;;
2686;SDS011;1353;51.386;7.028;2022-10-16T14:43:33;1.53;;;0.80;;
2686;SDS011;1353;51.386;7.028;2022-10-16T14:46:03;1.67;;;0.90;;
2686;SDS011;1353;51.386;7.028;2022-10-16T14:48:36;1.30;;;0.80;;
2686;SDS011;1353;51.386;7.028;2022-10-16T14:51:08;1.10;;;0.90;;
2686;SDS011;1353;51.386;7.028;2022-10-16T14:53:40;2.57;;;1.07;;
2686;SDS011;1353;51.386;7.028;2022-10-16T14:56:07;1.70;;;0.87;;
2686;SDS011;1353;51.386;7.028;2022-10-16T14:58:35;1.57;;;0.90;;
2686;SDS011;1353;51.386;7.028;2022-10-16T15:01:03;4.57;;;0.73;;
2686;SDS011;1353;51.386;7.028;2022-10-16T15:03:31;1.10;;;0.80;;
2686;SDS011;1353;51.386;7.028;2022-10-16T15:05:58;1.73;;;0.80;;
2686;SDS011;1353;51.386;7.028;2022-10-16T15:08:25;1.70;;;1.30;;
2686;SDS011;1353;51.386;7.028;2022-10-16T15:10:52;2.53;;;1.40;;
2686;SDS011;1353;51.386;7.028;2022-10-16T15:13:18;1.90;;;1.10;;
2686;SDS011;1353;51.386;7.028;2022-10-16T15:15:45;1.43;;;0.70;;
2686;SDS011;1353;51.386;7.028;2022-10-16T15:18:15;3.53;;;1.07;;
2686;SDS011;1353;51.386;7.028;2022-10-16T15:20:45;1.67;;;1.47;;
2686;SDS011;1353;51.386;7.028;2022-10-16T15:23:15;2.10;;;1.00;;
2686;SDS011;1353;51.386;7.028;2022-10-16T15:25:43;3.00;;;1.73;;
2686;SDS011;1353;51.386;7.028;2022-10-16T15:28:12;3.87;;;2.20;;
2686;SDS011;1353;51.386;7.028;2022-10-16T15:30:39;1.53;;;0.83;;
2686;SDS011;1353;51.386;7.028;2022-10-16T15:33:10;11.70;;;1.30;;
2686;SDS011;1353;51.386;7.028;2022-10-16T15:35:40;2.23;;;0.83;;
2686;SDS011;1353;51.386;7.028;2022-10-16T15:38:08;1.77;;;0.90;;
2686;SDS011;1353;51.386;7.028;2022-10-16T15:40:37;1.20;;;1.10;;